TIPO2: N. Fork Red River nr Tipton, OK

Data processed at Fri Mar 09 2018 23:48


All information presented herein is the property of the government of the United States of America and may be revised or deleted at any time without prior notice.
Dissemination of this information without the expressed written consent of the Public Affairs Office, Tulsa District U.S. Army Corps of Engineers is strictly prohibited.
These data are gathered electronically and, as presented, have not undergone any form of quality control. These data are not guaranteed to be valid or correct.
Go to home page.
Go to station list.

Upstream stations:

Downstream station:
Previous Day
Next Day
Current Day
    
SHEF ID:       TIPO2     North Fork Red River near Tipton
STATION TYPE:  

                STAGE  RIV-FLOW   VOLTAGE  BAT-LOAD
                   ft       cfs      volt      volt
              Ccp-Rev   Ccp-Rev   Ccp-Rev   Ccp-Rev
(US/Central)
03/07 00:00     26.32      ----     12.65     12.49
03/07 01:00     26.32      ----     12.57     12.41
03/07 02:00     26.32      ----     12.57     12.41
03/07 03:00     26.32      ----     12.57     12.41
03/07 04:00     26.32      ----     12.41     12.33
03/07 05:00     26.32      ----     12.41     12.25
03/07 06:00     26.32      ----     12.41     12.25
03/07 07:00      5.60        78     12.41     12.25
03/07 08:00      5.63        82     12.41     12.25
03/07 09:00      5.65        84     12.57     12.33
03/07 10:00      5.69        90     13.37     12.97
03/07 11:00      5.73        96     13.53     13.37
03/07 12:00      5.78       104     13.53     13.37
03/07 13:00      5.80       107     13.68     13.29
03/07 14:00      5.82       110     13.53     13.29
03/07 15:00      5.84       113     13.53     13.29
03/07 16:00      5.85       115     13.53     13.29
03/07 17:00      5.86       117     13.37     13.29
03/07 18:00      5.87       119     12.97     12.89
03/07 19:00      5.87       119     12.73     12.65
03/07 20:00      5.87       119     12.73     12.57
03/07 21:00      5.87       119     12.65     12.57
03/07 22:00      5.88       120     12.65     12.49
03/07 23:00      5.88       120     12.65     12.49